Time;durP1;ratioP1;P1;durP2;ratioP2;P2;SDS_P1;SDS_P2;PMS_P1;PMS_P2;Temp;Humidity;BMP_temperature;BMP_pressure;BME280_temperature;BME280_humidity;BME280_pressure;Samples;Min_cycle;Max_cycle;Signal;HPM_P1;HPM_P2
2021/12/26 00:00:02;;;;;;;5.57;3.45;;;-6.60;99.90;;;;;;5094151;28;20087;-84
2021/12/26 00:02:28;;;;;;;6.70;4.40;;;-6.60;99.90;;;;;;5093651;28;20500;-84
2021/12/26 00:04:54;;;;;;;4.75;4.05;;;-6.50;99.90;;;;;;5111136;28;20105;-86
2021/12/26 00:07:19;;;;;;;7.35;4.78;;;-6.30;99.90;;;;;;5128144;27;20158;-85
2021/12/26 00:09:45;;;;;;;5.20;3.50;;;-6.30;99.90;;;;;;5127619;27;20054;-85
2021/12/26 00:12:10;;;;;;;4.32;3.92;;;-6.50;99.90;;;;;;5127758;27;20055;-86
2021/12/26 00:14:36;;;;;;;4.85;3.75;;;-6.40;99.90;;;;;;5126801;27;20059;-84
2021/12/26 00:17:02;;;;;;;5.00;3.67;;;-6.30;99.90;;;;;;5127960;27;20093;-84
2021/12/26 00:19:28;;;;;;;6.10;4.05;;;-6.40;99.90;;;;;;5076476;28;20056;-84
2021/12/26 00:21:54;;;;;;;7.38;4.25;;;-6.40;99.90;;;;;;5111778;28;20494;-84
2021/12/26 00:24:19;;;;;;;6.13;4.40;;;-6.40;99.90;;;;;;5093463;28;20436;-84
2021/12/26 00:26:45;;;;;;;7.63;4.55;;;-6.50;99.90;;;;;;5110189;28;20051;-85
2021/12/26 00:29:11;;;;;;;6.70;4.38;;;-6.50;99.90;;;;;;5093461;28;20058;-84
2021/12/26 00:31:37;;;;;;;6.20;4.60;;;-6.50;99.90;;;;;;5092727;28;20116;-84
2021/12/26 00:34:03;;;;;;;5.25;4.50;;;-6.60;99.90;;;;;;5111659;28;20468;-84
2021/12/26 00:36:28;;;;;;;4.35;3.50;;;-6.70;99.90;;;;;;5092791;28;20052;-84
2021/12/26 00:38:54;;;;;;;5.78;4.13;;;-6.60;99.90;;;;;;5127567;27;20053;-84
2021/12/26 00:41:20;;;;;;;6.55;4.32;;;-6.60;99.90;;;;;;5127327;27;20069;-84
2021/12/26 00:43:45;;;;;;;7.45;4.40;;;-6.70;99.90;;;;;;5092738;28;20047;-84
2021/12/26 00:46:11;;;;;;;6.18;4.10;;;-6.70;99.90;;;;;;5127361;27;20494;-85
2021/12/26 00:48:37;;;;;;;4.60;4.20;;;-6.70;99.90;;;;;;5092662;28;20521;-84
2021/12/26 00:51:02;;;;;;;4.88;3.90;;;-6.80;99.90;;;;;;5127229;28;20051;-84
2021/12/26 00:53:28;;;;;;;8.00;4.30;;;-6.80;99.90;;;;;;5092819;28;20086;-84
2021/12/26 00:55:54;;;;;;;6.05;4.10;;;-6.80;99.90;;;;;;5127495;28;20061;-85
2021/12/26 00:58:19;;;;;;;4.32;3.92;;;-6.80;99.90;;;;;;5093242;28;20399;-84
2021/12/26 01:00:46;;;;;;;6.40;4.20;;;-6.80;99.90;;;;;;5076232;28;20102;-85
2021/12/26 01:03:12;;;;;;;4.38;3.95;;;-6.70;99.90;;;;;;5093528;28;20403;-84
2021/12/26 01:05:39;;;;;;;4.20;3.65;;;-6.70;99.90;;;;;;5092842;28;20054;-84
2021/12/26 01:08:05;;;;;;;5.82;3.90;;;-6.70;99.90;;;;;;5076685;28;20128;-84
2021/12/26 01:10:43;;;;;;;5.47;4.07;;;-6.80;99.90;;;;;;5092769;28;20043;-84
2021/12/26 01:13:17;;;;;;;8.32;4.05;;;-6.80;99.90;;;;;;5094277;28;20051;-84
2021/12/26 01:15:44;;;;;;;4.45;3.70;;;-6.80;99.90;;;;;;5077200;28;20138;-85
2021/12/26 01:18:09;;;;;;;5.47;4.13;;;-6.80;99.90;;;;;;5093144;28;20055;-84
2021/12/26 01:20:48;;;;;;;4.57;4.18;;;-6.80;99.90;;;;;;5092748;28;20127;-84
2021/12/26 01:23:14;;;;;;;5.20;4.32;;;-6.90;99.90;;;;;;5127672;28;20567;-83
2021/12/26 01:25:40;;;;;;;4.15;3.72;;;-7.00;99.90;;;;;;5114272;28;20551;-84
2021/12/26 01:28:06;;;;;;;5.28;4.03;;;-7.00;99.90;;;;;;5103270;28;20047;-83
2021/12/26 01:30:33;;;;;;;5.13;3.92;;;-7.00;99.90;;;;;;5097005;28;20055;-84
2021/12/26 01:32:58;;;;;;;4.55;3.60;;;-7.00;99.90;;;;;;5096891;28;20040;-84
2021/12/26 01:35:24;;;;;;;4.25;3.65;;;-7.00;99.90;;;;;;5096746;28;20062;-84
2021/12/26 01:37:50;;;;;;;3.72;3.42;;;-7.00;99.90;;;;;;5130778;27;20063;-84
2021/12/26 01:40:16;;;;;;;3.42;3.22;;;-6.90;99.90;;;;;;5096913;28;20039;-84
2021/12/26 01:42:42;;;;;;;4.35;3.42;;;-6.80;99.90;;;;;;5130431;27;20116;-84
2021/12/26 01:45:08;;;;;;;4.65;3.58;;;-6.80;99.90;;;;;;5079745;28;20435;-84
2021/12/26 01:47:33;;;;;;;4.15;3.75;;;-6.70;99.90;;;;;;5096759;28;20055;-84
2021/12/26 01:49:59;;;;;;;4.35;3.95;;;-6.70;99.90;;;;;;5096208;28;20394;-84
2021/12/26 01:52:25;;;;;;;4.80;3.65;;;-5.80;99.90;;;;;;5096282;28;20101;-84
2021/12/26 01:55:00;;;;;;;3.97;3.65;;;-6.90;99.90;;;;;;5095734;28;20047;-83
2021/12/26 01:57:26;;;;;;;4.10;3.70;;;-6.90;99.90;;;;;;5130943;27;20428;-84
2021/12/26 01:59:52;;;;;;;5.25;3.45;;;-6.90;99.90;;;;;;5096042;28;20039;-84
2021/12/26 02:02:17;;;;;;;4.43;3.53;;;-6.80;99.90;;;;;;5096467;28;20210;-84
2021/12/26 02:04:43;;;;;;;3.70;3.35;;;-6.80;99.90;;;;;;5130106;27;20134;-83
2021/12/26 02:07:10;;;;;;;5.20;3.70;;;-6.90;99.90;;;;;;5130182;27;20054;-85
2021/12/26 02:09:35;;;;;;;8.63;4.03;;;-6.90;99.90;;;;;;5130311;27;20051;-83
2021/12/26 02:12:01;;;;;;;3.67;3.38;;;-6.90;99.90;;;;;;5129642;27;20447;-83
2021/12/26 02:14:27;;;;;;;3.97;3.35;;;-6.10;99.90;;;;;;5079360;28;20093;-83
2021/12/26 02:16:53;;;;;;;4.38;3.75;;;-6.80;99.90;;;;;;5129892;27;20134;-84
2021/12/26 02:19:18;;;;;;;4.13;3.53;;;-5.90;99.90;;;;;;5113163;28;20156;-85
2021/12/26 02:24:20;;;;;;;6.70;4.00;;;-6.80;99.90;;;;;;5112753;28;20058;-84
2021/12/26 02:29:29;;;;;;;4.60;3.40;;;-6.90;99.90;;;;;;5112703;28;20051;-84
2021/12/26 02:31:55;;;;;;;4.28;3.90;;;-6.90;99.90;;;;;;5113453;28;20044;-84
2021/12/26 02:34:21;;;;;;;5.97;4.28;;;-6.90;99.90;;;;;;5129892;27;20131;-84
2021/12/26 02:36:46;;;;;;;4.75;3.45;;;-6.90;99.90;;;;;;5094603;28;20112;-84
2021/12/26 02:39:12;;;;;;;3.53;3.20;;;-6.90;99.90;;;;;;5129269;27;20053;-84
2021/12/26 02:41:38;;;;;;;3.95;3.42;;;-6.80;99.90;;;;;;5079016;28;20247;-83
2021/12/26 02:44:04;;;;;;;5.55;3.50;;;-6.90;99.90;;;;;;5129636;27;20040;-83
2021/12/26 02:46:29;;;;;;;5.20;3.30;;;-6.90;99.90;;;;;;5095428;28;20113;-83
2021/12/26 02:48:55;;;;;;;3.95;3.55;;;-7.00;99.90;;;;;;5129188;27;20044;-84
2021/12/26 02:51:21;;;;;;;6.50;3.40;;;-7.00;99.90;;;;;;5095281;28;20450;-83
2021/12/26 02:53:48;;;;;;;4.63;3.60;;;-6.90;99.90;;;;;;5095076;28;20381;-83
2021/12/26 02:56:14;;;;;;;3.95;3.50;;;-6.80;99.90;;;;;;5129529;27;20058;-84
2021/12/26 02:58:40;;;;;;;4.80;3.30;;;-6.90;99.90;;;;;;5095300;28;20505;-83
2021/12/26 03:01:10;;;;;;;3.55;3.25;;;-6.90;99.90;;;;;;5094940;28;20062;-84
2021/12/26 03:03:35;;;;;;;3.95;3.63;;;-6.90;99.90;;;;;;5112557;28;20054;-84
2021/12/26 03:06:06;;;;;;;6.75;3.67;;;-6.90;99.90;;;;;;5129135;27;20464;-84
2021/12/26 03:08:32;;;;;;;4.30;3.55;;;-6.90;99.90;;;;;;5079517;28;20441;-83
2021/12/26 03:10:59;;;;;;;6.18;3.63;;;-6.90;99.90;;;;;;5128798;27;20043;-84
2021/12/26 03:13:25;;;;;;;4.10;3.70;;;-6.90;99.90;;;;;;5095139;28;20063;-84
2021/12/26 03:15:50;;;;;;;3.58;3.22;;;-6.90;99.90;;;;;;5094561;28;20055;-84
2021/12/26 03:18:16;;;;;;;3.58;3.28;;;-6.90;99.90;;;;;;5095070;28;20040;-84
2021/12/26 03:20:44;;;;;;;3.70;3.38;;;-6.80;99.90;;;;;;5129137;27;20090;-84
2021/12/26 03:23:11;;;;;;;4.55;3.40;;;-6.80;99.90;;;;;;5078140;28;20047;-84
2021/12/26 03:25:37;;;;;;;3.90;3.50;;;-6.90;99.90;;;;;;5129099;27;20048;-84
2021/12/26 03:28:04;;;;;;;3.97;3.58;;;-6.90;99.90;;;;;;5094294;28;20104;-84
2021/12/26 03:30:30;;;;;;;4.05;3.30;;;-6.90;99.90;;;;;;5094748;28;20105;-84
2021/12/26 03:32:57;;;;;;;3.90;3.47;;;-7.00;99.90;;;;;;5095270;28;20123;-85
2021/12/26 03:35:24;;;;;;;4.88;3.50;;;-7.10;99.90;;;;;;5094465;28;20048;-84
2021/12/26 03:37:50;;;;;;;3.65;3.38;;;-7.10;99.90;;;;;;5094680;28;20067;-84
2021/12/26 03:40:15;;;;;;;6.07;3.83;;;-7.10;99.90;;;;;;5094556;28;20047;-83
2021/12/26 03:42:41;;;;;;;3.65;3.30;;;-7.20;99.90;;;;;;5077747;28;20047;-84
2021/12/26 03:45:07;;;;;;;4.30;3.65;;;-7.20;99.90;;;;;;5094056;28;20048;-84
2021/12/26 03:47:34;;;;;;;4.05;3.60;;;-7.10;99.90;;;;;;5094648;28;20491;-84
2021/12/26 03:50:00;;;;;;;4.10;3.70;;;-7.20;99.90;;;;;;5093931;28;20552;-84
2021/12/26 03:52:25;;;;;;;3.92;3.42;;;-7.10;99.90;;;;;;5128020;27;20044;-83
2021/12/26 03:54:52;;;;;;;3.78;3.47;;;-7.20;99.90;;;;;;5093942;28;20554;-83
2021/12/26 03:57:18;;;;;;;3.95;3.65;;;-7.30;99.90;;;;;;5094288;28;20145;-84
2021/12/26 03:59:44;;;;;;;6.25;4.25;;;-7.30;99.90;;;;;;5077113;28;20130;-84
2021/12/26 04:02:10;;;;;;;3.70;3.40;;;-7.30;99.90;;;;;;5076541;28;20052;-84
2021/12/26 04:04:36;;;;;;;4.47;3.50;;;-7.30;99.90;;;;;;5077371;28;20050;-84
2021/12/26 04:07:01;;;;;;;6.80;4.32;;;-7.20;99.90;;;;;;5093580;28;20047;-84
2021/12/26 04:09:27;;;;;;;5.28;3.97;;;-7.10;99.90;;;;;;5093837;28;20086;-84
2021/12/26 04:11:53;;;;;;;5.70;4.00;;;-7.20;99.90;;;;;;5127748;27;20127;-83
2021/12/26 04:14:20;;;;;;;4.57;3.97;;;-7.20;99.90;;;;;;5111368;28;20088;-84
2021/12/26 04:16:46;;;;;;;4.80;3.72;;;-7.20;99.90;;;;;;5094062;28;20104;-84
2021/12/26 04:19:11;;;;;;;4.35;3.72;;;-7.20;99.90;;;;;;5093461;28;20471;-84
2021/12/26 04:21:37;;;;;;;4.53;3.35;;;-7.30;99.90;;;;;;5093929;28;20108;-84
2021/12/26 04:24:03;;;;;;;4.78;3.63;;;-7.10;99.90;;;;;;5093449;28;20056;-84
2021/12/26 04:26:30;;;;;;;4.32;3.88;;;-7.10;99.90;;;;;;5077037;28;20097;-84
2021/12/26 04:28:55;;;;;;;4.03;3.65;;;-7.20;99.90;;;;;;5076798;28;20048;-83
2021/12/26 04:31:21;;;;;;;4.32;3.72;;;-7.20;99.90;;;;;;5092872;28;20048;-84
2021/12/26 04:33:47;;;;;;;4.28;3.80;;;-7.20;99.90;;;;;;5093642;28;20084;-84
2021/12/26 04:36:13;;;;;;;3.88;3.47;;;-7.20;99.90;;;;;;5126478;27;20123;-84
2021/12/26 04:38:39;;;;;;;4.47;4.07;;;-7.20;99.90;;;;;;5093634;28;20051;-83
2021/12/26 04:41:05;;;;;;;4.38;3.83;;;-7.20;99.90;;;;;;5093271;28;20047;-84
2021/12/26 04:43:34;;;;;;;5.18;3.65;;;-7.20;99.90;;;;;;5093626;28;20499;-84
2021/12/26 04:46:02;;;;;;;4.05;3.67;;;-7.10;99.90;;;;;;5093510;28;20052;-84
2021/12/26 04:48:28;;;;;;;3.63;3.30;;;-7.10;99.90;;;;;;5093887;28;20508;-84
2021/12/26 04:50:54;;;;;;;3.95;3.55;;;-7.10;99.90;;;;;;5127563;28;20130;-84
2021/12/26 04:53:19;;;;;;;3.38;3.08;;;-6.90;99.90;;;;;;5093062;28;20089;-84
2021/12/26 04:55:45;;;;;;;4.28;3.35;;;-6.90;99.90;;;;;;5127562;28;20047;-84
2021/12/26 04:58:11;;;;;;;4.05;3.65;;;-6.90;99.90;;;;;;5109909;28;20089;-84
2021/12/26 05:00:36;;;;;;;5.53;4.10;;;-7.00;99.90;;;;;;5076696;28;20040;-83
2021/12/26 05:03:07;;;;;;;4.78;3.30;;;-5.90;99.90;;;;;;5097211;28;20184;-84
2021/12/26 05:05:33;;;;;;;6.70;4.85;;;-7.00;99.90;;;;;;5081324;28;20115;-84
2021/12/26 05:07:58;;;;;;;6.65;4.32;;;-7.00;99.90;;;;;;5097412;28;20126;-83
2021/12/26 05:10:27;;;;;;;6.43;4.25;;;-7.10;99.90;;;;;;5131097;27;20500;-84
2021/12/26 05:12:52;;;;;;;5.20;4.18;;;-7.10;99.90;;;;;;5097787;28;20087;-84
2021/12/26 05:15:21;;;;;;;6.82;4.60;;;-7.20;99.90;;;;;;5096993;28;20174;-84
2021/12/26 05:17:47;;;;;;;4.45;4.05;;;-7.20;99.90;;;;;;5097729;28;20132;-83
2021/12/26 05:20:13;;;;;;;4.80;4.35;;;-7.20;99.90;;;;;;5096737;28;20059;-83
2021/12/26 05:22:38;;;;;;;5.95;4.50;;;-7.30;99.90;;;;;;5096847;28;20556;-84
2021/12/26 05:25:06;;;;;;;5.88;4.68;;;-7.30;99.90;;;;;;5080141;28;20043;-83
2021/12/26 05:27:33;;;;;;;3.50;3.30;;;-7.30;99.90;;;;;;5097804;27;20130;-83
2021/12/26 05:29:58;;;;;;;6.40;4.50;;;-7.20;99.90;;;;;;5097102;28;20514;-84
2021/12/26 05:32:24;;;;;;;7.07;4.78;;;-7.20;99.90;;;;;;5113580;28;20048;-84
2021/12/26 05:34:50;;;;;;;6.47;4.70;;;-7.20;99.90;;;;;;5097016;28;20139;-84
2021/12/26 05:37:15;;;;;;;5.15;4.65;;;-7.20;99.90;;;;;;5095941;28;20086;-84
2021/12/26 05:39:42;;;;;;;6.43;5.30;;;-7.20;99.90;;;;;;5096707;28;20091;-84
2021/12/26 05:42:14;;;;;;;5.75;4.72;;;-7.10;99.90;;;;;;5114301;28;20741;-84
2021/12/26 05:44:40;;;;;;;5.07;4.63;;;-7.10;99.90;;;;;;5130698;27;20048;-84
2021/12/26 05:47:06;;;;;;;6.80;5.35;;;-7.10;99.90;;;;;;5113698;28;20058;-84
2021/12/26 05:49:31;;;;;;;6.28;5.15;;;-7.00;99.90;;;;;;5113186;28;20201;-84
2021/12/26 05:51:57;;;;;;;6.53;5.10;;;-7.10;99.90;;;;;;5096323;28;20048;-84
2021/12/26 05:54:22;;;;;;;4.95;4.55;;;-5.60;99.90;;;;;;5096088;28;20071;-84
2021/12/26 05:56:48;;;;;;;5.25;4.40;;;-7.10;99.90;;;;;;5130658;27;20039;-84
2021/12/26 05:59:14;;;;;;;5.55;4.93;;;-7.10;99.90;;;;;;5130180;27;20051;-84
2021/12/26 06:01:40;;;;;;;4.30;3.80;;;-7.10;99.90;;;;;;5130593;27;20081;-84
2021/12/26 06:04:05;;;;;;;6.10;3.92;;;-7.10;99.90;;;;;;5096440;28;20517;-83
2021/12/26 06:06:31;;;;;;;8.35;5.05;;;-6.90;99.90;;;;;;5096097;28;20384;-84
2021/12/26 06:08:57;;;;;;;7.35;5.20;;;-7.00;99.90;;;;;;5130403;27;20043;-84
2021/12/26 06:11:23;;;;;;;9.43;5.45;;;-7.00;99.90;;;;;;5095680;28;20056;-84
2021/12/26 06:13:48;;;;;;;6.28;5.28;;;-7.40;99.90;;;;;;5129119;27;20131;-83
2021/12/26 06:16:14;;;;;;;6.18;4.38;;;-7.00;99.90;;;;;;5129903;27;20393;-83
2021/12/26 06:18:40;;;;;;;4.30;3.85;;;-6.80;99.90;;;;;;5096364;28;20091;-83
2021/12/26 06:21:05;;;;;;;4.60;4.03;;;-6.70;99.90;;;;;;5130032;27;20055;-83
2021/12/26 06:23:31;;;;;;;7.57;5.95;;;-6.60;99.90;;;;;;5129989;27;20050;-83
2021/12/26 06:25:56;;;;;;;6.40;5.05;;;-6.70;99.90;;;;;;5113112;28;20134;-83
2021/12/26 06:28:22;;;;;;;8.70;5.55;;;-6.80;99.90;;;;;;5129915;27;20077;-84
2021/12/26 06:30:48;;;;;;;7.70;5.13;;;-5.60;99.90;;;;;;5130575;27;20085;-84
2021/12/26 06:33:14;;;;;;;9.02;4.40;;;-6.80;99.90;;;;;;5096248;28;20044;-83
2021/12/26 06:35:39;;;;;;;10.13;5.78;;;-6.70;99.90;;;;;;5129869;27;20429;-83
2021/12/26 06:38:05;;;;;;;6.10;4.43;;;-6.70;99.90;;;;;;5112710;28;20416;-84
2021/12/26 06:40:30;;;;;;;7.22;4.45;;;-6.70;99.90;;;;;;5095635;28;20564;-84
2021/12/26 06:42:56;;;;;;;7.05;5.22;;;-6.60;99.90;;;;;;5129728;27;20548;-84
2021/12/26 06:45:22;;;;;;;8.40;5.72;;;-6.70;99.90;;;;;;5095350;28;20059;-85
2021/12/26 06:47:52;;;;;;;7.30;5.30;;;-6.80;99.90;;;;;;5095895;28;20066;-85
2021/12/26 06:50:18;;;;;;;7.43;5.00;;;-6.70;99.90;;;;;;5112569;28;20112;-85
2021/12/26 06:52:44;;;;;;;10.35;5.72;;;-6.80;99.90;;;;;;5112465;28;20044;-84
2021/12/26 06:55:10;;;;;;;9.65;5.70;;;-6.70;99.90;;;;;;5113746;28;20051;-84
2021/12/26 06:57:37;;;;;;;7.65;5.78;;;-6.80;99.90;;;;;;5061815;28;20195;-84
2021/12/26 07:00:05;;;;;;;10.95;5.97;;;-6.80;99.90;;;;;;5129701;27;20063;-84
2021/12/26 07:02:30;;;;;;;6.78;5.55;;;-6.70;99.90;;;;;;5078223;28;20124;-84
2021/12/26 07:04:56;;;;;;;8.55;6.07;;;-6.80;99.90;;;;;;5129655;27;20085;-84
2021/12/26 07:07:22;;;;;;;7.93;5.32;;;-6.80;99.90;;;;;;5112173;28;20047;-84
2021/12/26 07:09:47;;;;;;;8.48;6.15;;;-6.80;99.90;;;;;;5129598;27;20122;-84
2021/12/26 07:12:14;;;;;;;8.10;6.20;;;-6.70;99.90;;;;;;5129304;27;20149;-84
2021/12/26 07:14:41;;;;;;;9.85;5.57;;;-5.30;99.90;;;;;;5128821;27;20063;-84
2021/12/26 07:17:07;;;;;;;6.85;5.22;;;-6.80;99.90;;;;;;5095234;28;20504;-84
2021/12/26 07:19:32;;;;;;;9.02;6.70;;;-6.80;99.90;;;;;;5094314;28;20395;-84
2021/12/26 07:21:58;;;;;;;9.75;5.90;;;-6.80;99.90;;;;;;5113465;28;20047;-85
2021/12/26 07:24:24;;;;;;;9.60;5.72;;;-6.90;99.90;;;;;;5127788;27;20058;-84
2021/12/26 07:26:49;;;;;;;8.05;6.13;;;-6.90;99.90;;;;;;5094717;28;20054;-84
2021/12/26 07:29:15;;;;;;;8.90;6.18;;;-6.90;99.90;;;;;;5094816;28;20043;-84
2021/12/26 07:31:41;;;;;;;5.70;4.95;;;-6.10;99.90;;;;;;5111249;28;20147;-84
2021/12/26 07:34:06;;;;;;;9.18;6.57;;;-6.90;99.90;;;;;;5111751;28;20039;-84
2021/12/26 07:36:32;;;;;;;9.77;6.45;;;-6.90;99.90;;;;;;5110757;28;20062;-83
2021/12/26 07:38:58;;;;;;;9.57;6.25;;;-6.90;99.90;;;;;;5128861;27;20044;-83
2021/12/26 07:41:23;;;;;;;6.25;5.20;;;-6.90;99.90;;;;;;5112304;28;20090;-83
2021/12/26 07:43:49;;;;;;;10.85;6.30;;;-6.80;99.90;;;;;;5111584;28;20059;-84
2021/12/26 07:46:16;;;;;;;7.55;6.65;;;-6.80;99.90;;;;;;5111700;28;20402;-83
2021/12/26 07:48:42;;;;;;;9.82;6.03;;;-6.80;99.90;;;;;;5128051;27;20403;-83
2021/12/26 07:51:07;;;;;;;7.85;6.55;;;-6.80;99.90;;;;;;5094423;28;20048;-84
2021/12/26 07:53:33;;;;;;;6.00;5.43;;;-6.90;99.90;;;;;;5128350;27;20055;-85
2021/12/26 07:55:59;;;;;;;9.13;6.65;;;-6.80;99.90;;;;;;5094644;28;20039;-83
2021/12/26 07:58:25;;;;;;;9.35;6.35;;;-6.80;99.90;;;;;;5094088;28;20407;-84
2021/12/26 08:00:51;;;;;;;8.77;6.38;;;-6.80;99.90;;;;;;5094078;28;20047;-86
2021/12/26 08:03:17;;;;;;;8.57;6.22;;;-6.70;99.90;;;;;;5076911;28;20502;-84
2021/12/26 08:05:42;;;;;;;7.93;6.50;;;-6.70;99.90;;;;;;5127591;27;20051;-83
2021/12/26 08:08:08;;;;;;;5.60;4.70;;;-6.70;99.90;;;;;;5094019;28;20134;-84
2021/12/26 08:10:33;;;;;;;10.85;6.15;;;-6.70;99.90;;;;;;5127290;27;20047;-83
2021/12/26 08:12:59;;;;;;;9.20;6.07;;;-6.70;99.90;;;;;;5127982;27;20048;-84
2021/12/26 08:15:25;;;;;;;6.57;5.93;;;-6.70;99.90;;;;;;5128026;27;20040;-84
2021/12/26 08:17:50;;;;;;;10.38;6.65;;;-6.60;99.90;;;;;;5110375;28;20043;-83
2021/12/26 08:20:16;;;;;;;7.10;6.03;;;-6.70;99.90;;;;;;5110579;28;20509;-83
2021/12/26 08:22:42;;;;;;;7.55;5.88;;;-6.60;99.90;;;;;;5127353;27;20047;-83
2021/12/26 08:25:08;;;;;;;11.95;5.95;;;-6.40;99.90;;;;;;5093350;28;20044;-84
2021/12/26 08:27:34;;;;;;;6.80;6.10;;;-6.30;99.90;;;;;;5093177;28;20385;-83
2021/12/26 08:30:00;;;;;;;8.80;5.28;;;-6.20;99.90;;;;;;5076498;28;20051;-84
2021/12/26 08:32:27;;;;;;;7.38;5.85;;;-6.10;99.90;;;;;;5127561;27;20142;-84
2021/12/26 08:34:52;;;;;;;10.32;6.03;;;-6.00;99.90;;;;;;5093093;28;20063;-84
2021/12/26 08:37:18;;;;;;;8.70;6.30;;;-5.90;99.90;;;;;;5092714;28;20060;-84
2021/12/26 08:39:44;;;;;;;8.02;5.80;;;-5.90;99.90;;;;;;5110171;28;20425;-84
2021/12/26 08:42:11;;;;;;;8.77;5.75;;;-5.80;99.90;;;;;;5093189;28;20561;-84
2021/12/26 08:44:36;;;;;;;8.13;5.15;;;-5.80;99.90;;;;;;5093025;28;20119;-84
2021/12/26 08:47:03;;;;;;;8.10;5.97;;;-5.70;99.90;;;;;;5093354;28;20119;-84
2021/12/26 08:49:29;;;;;;;7.93;6.03;;;-5.40;99.90;;;;;;5110555;28;20549;-84
2021/12/26 08:51:55;;;;;;;5.47;4.63;;;-4.90;99.90;;;;;;5109593;28;20051;-84
2021/12/26 08:54:22;;;;;;;6.60;5.22;;;-4.50;99.90;;;;;;5076389;28;20498;-85
2021/12/26 08:56:48;;;;;;;11.80;6.70;;;-4.10;99.90;;;;;;5093116;28;20056;-84
2021/12/26 08:59:14;;;;;;;8.60;5.70;;;-3.80;99.90;;;;;;5093085;28;20044;-85
2021/12/26 09:01:40;;;;;;;8.30;4.85;;;-3.40;99.90;;;;;;5058772;28;20135;-85
2021/12/26 09:04:05;;;;;;;5.78;5.15;;;-2.80;99.90;;;;;;5127166;28;20210;-84
2021/12/26 09:06:31;;;;;;;8.15;4.75;;;-2.30;99.90;;;;;;5127409;28;20050;-84
2021/12/26 09:08:57;;;;;;;6.15;4.78;;;-2.20;99.90;;;;;;5109598;28;20540;-85
2021/12/26 09:11:22;;;;;;;7.22;5.60;;;-1.80;99.90;;;;;;5126661;28;20051;-84
2021/12/26 09:13:48;;;;;;;6.85;5.05;;;-2.10;99.90;;;;;;5092769;28;20087;-85
2021/12/26 09:16:14;;;;;;;5.88;4.97;;;-2.10;99.90;;;;;;5093133;28;20368;-84
2021/12/26 09:18:41;;;;;;;7.10;4.63;;;-2.70;99.90;;;;;;5092499;28;20058;-85
2021/12/26 09:21:07;;;;;;;6.25;5.38;;;-2.40;99.90;;;;;;5092898;28;20509;-85
2021/12/26 09:23:32;;;;;;;5.93;4.97;;;-2.20;99.90;;;;;;5109770;28;20101;-85
2021/12/26 09:25:58;;;;;;;7.40;5.65;;;-2.20;99.90;;;;;;5092613;28;20384;-85
2021/12/26 09:28:25;;;;;;;6.22;5.13;;;-1.00;99.90;;;;;;5092982;28;20043;-85
2021/12/26 09:30:51;;;;;;;7.95;6.15;;;-2.60;99.90;;;;;;5076039;28;20589;-85
2021/12/26 09:33:19;;;;;;;5.97;5.20;;;-2.50;99.90;;;;;;5093091;28;20135;-85
2021/12/26 09:35:51;;;;;;;7.35;5.55;;;-3.10;99.90;;;;;;5126321;28;20047;-85
2021/12/26 09:38:17;;;;;;;8.55;5.68;;;-3.30;99.90;;;;;;5109766;28;20063;-84
2021/12/26 09:40:43;;;;;;;6.03;5.18;;;-3.50;99.90;;;;;;5092353;28;20541;-85
2021/12/26 09:43:08;;;;;;;10.52;7.53;;;-3.20;99.90;;;;;;5092750;28;20084;-85
2021/12/26 09:45:34;;;;;;;10.82;6.43;;;-3.30;99.90;;;;;;5109394;28;20055;-85
2021/12/26 09:48:00;;;;;;;6.28;5.63;;;-3.10;99.90;;;;;;5061439;28;20055;-85
2021/12/26 09:50:25;;;;;;;9.10;7.03;;;-3.10;99.90;;;;;;5113334;28;20050;-85
2021/12/26 09:52:53;;;;;;;38.88;17.92;;;-3.20;99.90;;;;;;5114160;28;20039;-84
2021/12/26 09:55:19;;;;;;;9.35;7.05;;;-3.30;99.90;;;;;;5096808;28;20051;-85
2021/12/26 09:57:44;;;;;;;5.28;4.45;;;-3.30;99.90;;;;;;5079026;28;20519;-84
2021/12/26 10:00:19;;;;;;;6.35;5.45;;;-3.30;99.90;;;;;;5096325;28;20043;-85
2021/12/26 10:02:45;;;;;;;7.95;5.47;;;-3.20;99.90;;;;;;5112683;28;20055;-85
2021/12/26 10:05:11;;;;;;;5.28;4.63;;;-3.10;99.90;;;;;;5113122;28;20104;-85
2021/12/26 10:07:37;;;;;;;6.60;5.13;;;-3.10;99.90;;;;;;5130140;27;20487;-84
2021/12/26 10:10:05;;;;;;;8.57;5.95;;;-3.00;99.90;;;;;;5095601;28;20483;-84
2021/12/26 10:12:37;;;;;;;10.18;5.05;;;-2.80;99.90;;;;;;5096011;28;20407;-84
2021/12/26 10:15:03;;;;;;;7.95;6.00;;;-2.60;99.90;;;;;;5079672;28;20055;-85
2021/12/26 10:17:30;;;;;;;6.68;5.53;;;-2.60;99.90;;;;;;5079140;28;20051;-85
2021/12/26 10:20:06;;;;;;;7.60;5.60;;;-2.50;99.90;;;;;;5095405;28;20075;-84
2021/12/26 10:22:32;;;;;;;5.97;4.78;;;-2.50;99.90;;;;;;5112866;27;20074;-84
2021/12/26 10:24:57;;;;;;;8.27;5.65;;;-2.50;99.90;;;;;;5095301;28;20476;-84
2021/12/26 10:27:27;;;;;;;8.68;5.45;;;-2.50;99.90;;;;;;5129652;27;20051;-85
2021/12/26 10:29:54;;;;;;;7.32;5.57;;;-2.70;99.90;;;;;;5096051;28;20111;-84
2021/12/26 10:32:29;;;;;;;7.80;5.50;;;-2.70;99.90;;;;;;5095431;28;20154;-84
2021/12/26 10:34:55;;;;;;;;;;;-2.80;99.90;;;;;;5096492;28;20440;-85
2021/12/26 10:37:23;;;;;;;7.50;5.50;;;-2.70;99.90;;;;;;5113225;28;19924;-84
2021/12/26 10:39:51;;;;;;;7.00;4.90;;;-2.50;99.90;;;;;;5078463;28;20111;-84
2021/12/26 10:42:22;;;;;;;7.47;5.70;;;-2.50;99.90;;;;;;5129631;27;20044;-85
2021/12/26 10:44:54;;;;;;;5.95;5.00;;;-2.20;99.90;;;;;;5095346;28;20073;-84
2021/12/26 10:47:22;;;;;;;7.30;4.85;;;-2.50;99.90;;;;;;5096163;28;20048;-84
2021/12/26 10:50:00;;;;;;;7.30;5.38;;;-1.10;99.90;;;;;;5094952;28;20051;-84
2021/12/26 10:52:48;;;;;;;7.50;5.03;;;-1.90;99.90;;;;;;5096615;28;20056;-85
2021/12/26 10:55:17;;;;;;;8.93;5.18;;;-1.80;99.90;;;;;;5080299;28;20175;-85
2021/12/26 10:57:50;;;;;;;7.85;5.25;;;-1.90;99.90;;;;;;5095294;28;20403;-85
2021/12/26 11:00:22;;;;;;;8.00;4.60;;;-2.00;99.90;;;;;;5094616;28;20058;-84
2021/12/26 11:02:52;;;;;;;6.75;4.85;;;-2.10;99.90;;;;;;5112123;28;20499;-84
2021/12/26 11:05:25;;;;;;;6.43;4.93;;;-2.00;99.90;;;;;;5128993;27;20104;-85
2021/12/26 11:07:55;;;;;;;12.00;7.22;;;-2.10;99.90;;;;;;5128733;27;20486;-84
2021/12/26 11:10:25;;;;;;;45.10;17.60;;;-2.10;99.90;;;;;;5111766;28;20422;-84
2021/12/26 11:12:57;;;;;;;30.02;13.38;;;-1.30;99.90;;;;;;5111313;28;20051;-84
2021/12/26 11:15:25;;;;;;;16.27;10.05;;;-1.00;99.90;;;;;;5095141;28;20082;-84
2021/12/26 11:17:54;;;;;;;8.40;5.55;;;-1.00;99.90;;;;;;5094972;28;20702;-84
2021/12/26 11:20:31;;;;;;;7.03;5.03;;;-2.00;99.90;;;;;;5078237;28;20054;-85
2021/12/26 11:22:57;;;;;;;6.75;4.72;;;-1.90;99.90;;;;;;5095469;28;20059;-85
2021/12/26 11:25:23;;;;;;;5.82;4.70;;;-1.90;99.90;;;;;;5094516;28;20059;-84
2021/12/26 11:27:49;;;;;;;6.03;5.00;;;-1.80;99.90;;;;;;5094497;28;20039;-84
2021/12/26 11:30:15;;;;;;;8.07;5.25;;;-1.80;99.90;;;;;;5094145;28;20093;-84
2021/12/26 11:32:42;;;;;;;7.07;4.97;;;-0.60;99.90;;;;;;5111282;28;20040;-84
2021/12/26 11:35:08;;;;;;;6.43;4.05;;;-1.70;99.90;;;;;;5095035;28;20060;-84
2021/12/26 11:37:35;;;;;;;6.85;4.82;;;-1.70;99.90;;;;;;5129026;27;20495;-84
2021/12/26 11:40:01;;;;;;;4.95;3.78;;;-1.70;99.90;;;;;;5095418;28;20047;-83
2021/12/26 11:43:18;;;;;;;5.22;4.13;;;-1.60;99.90;;;;;;5095750;28;20062;-85
2021/12/26 11:45:52;;;;;;;5.85;4.63;;;-1.50;99.90;;;;;;5088976;28;20142;-84
2021/12/26 11:48:31;;;;;;;5.15;4.38;;;-1.50;99.90;;;;;;5094300;28;20051;-84
2021/12/26 11:51:17;;;;;;;7.10;4.55;;;-1.50;99.90;;;;;;5094638;28;20484;-84
2021/12/26 11:53:59;;;;;;;8.90;5.47;;;-1.50;99.90;;;;;;5094113;28;20484;-84
2021/12/26 11:56:34;;;;;;;5.60;4.80;;;-1.40;99.90;;;;;;5102988;28;20052;-84
2021/12/26 11:59:29;;;;;;;8.23;4.45;;;-0.30;99.90;;;;;;5130943;28;20050;-83
2021/12/26 12:01:54;;;;;;;8.30;4.85;;;-1.30;99.90;;;;;;5098157;28;20082;-84
2021/12/26 12:04:22;;;;;;;7.97;4.63;;;-1.30;99.90;;;;;;5093160;28;20051;-84
2021/12/26 12:06:49;;;;;;;7.00;4.82;;;-1.20;99.90;;;;;;5093754;28;20129;-84
2021/12/26 12:09:28;;;;;;;6.38;4.47;;;-2.20;99.90;;;;;;5093714;28;20058;-84
2021/12/26 12:11:59;;;;;;;6.32;4.53;;;-1.10;99.90;;;;;;5110511;28;20167;-84
2021/12/26 12:14:47;;;;;;;7.40;5.20;;;-1.10;99.90;;;;;;5128024;27;20043;-84
2021/12/26 12:17:29;;;;;;;14.95;7.80;;;-1.10;99.90;;;;;;5127129;27;20127;-84
2021/12/26 12:20:11;;;;;;;6.65;4.78;;;-1.10;99.90;;;;;;5061795;28;20048;-84
2021/12/26 12:22:39;;;;;;;8.00;5.30;;;-1.00;99.90;;;;;;5093701;28;20059;-84
2021/12/26 12:25:36;;;;;;;8.10;5.45;;;-0.90;99.90;;;;;;5093335;28;20055;-83
2021/12/26 12:28:16;;;;;;;4.82;3.95;;;-0.90;99.90;;;;;;5110260;28;20089;-84
2021/12/26 12:30:43;;;;;;;8.73;5.32;;;0.50;99.90;;;;;;5076698;28;20056;-84
2021/12/26 12:33:47;;;;;;;7.18;4.63;;;-0.40;99.90;;;;;;5111025;28;20055;-83
2021/12/26 12:36:25;;;;;;;8.93;4.70;;;-0.70;99.90;;;;;;5054159;28;20512;-84
2021/12/26 12:38:51;;;;;;;5.88;4.85;;;-0.60;99.90;;;;;;5106385;28;20043;-83
2021/12/26 12:41:29;;;;;;;7.43;5.18;;;-0.70;99.90;;;;;;5093273;28;20043;-83
2021/12/26 12:44:18;;;;;;;7.07;4.80;;;-0.70;99.90;;;;;;5093465;28;20138;-83
2021/12/26 12:47:07;;;;;;;6.60;4.95;;;-0.60;99.90;;;;;;5109270;28;20390;-83
2021/12/26 12:50:02;;;;;;;10.60;5.50;;;-0.50;99.90;;;;;;5110300;28;20326;-84
2021/12/26 12:52:47;;;;;;;6.82;4.10;;;-0.50;99.90;;;;;;5095860;28;20052;-83